sensor_id;sensor_type;location;lat;lon;timestamp;pressure;altitude;pressure_sealevel;temperature;humidity
74403;BME280;62837;51.082;13.744;2024-02-21T00:01:17;101095.08;;;8.48;70.93
74403;BME280;62837;51.082;13.744;2024-02-21T00:03:49;101094.31;;;8.49;70.87
74403;BME280;62837;51.082;13.744;2024-02-21T00:06:20;101089.70;;;8.51;70.96
74403;BME280;62837;51.082;13.744;2024-02-21T00:08:51;101085.82;;;8.51;70.94
74403;BME280;62837;51.082;13.744;2024-02-21T00:11:22;101084.50;;;8.51;70.95
74403;BME280;62837;51.082;13.744;2024-02-21T00:13:52;101081.27;;;8.49;70.90
74403;BME280;62837;51.082;13.744;2024-02-21T00:16:24;101075.33;;;8.49;71.09
74403;BME280;62837;51.082;13.744;2024-02-21T00:18:54;101073.52;;;8.47;71.11
74403;BME280;62837;51.082;13.744;2024-02-21T00:21:25;101072.91;;;8.47;71.43
74403;BME280;62837;51.082;13.744;2024-02-21T00:23:56;101067.89;;;8.48;71.15
74403;BME280;62837;51.082;13.744;2024-02-21T00:26:26;101066.86;;;8.46;71.07
74403;BME280;62837;51.082;13.744;2024-02-21T00:28:57;101061.09;;;8.44;71.28
74403;BME280;62837;51.082;13.744;2024-02-21T00:31:28;101064.23;;;8.42;71.53
74403;BME280;62837;51.082;13.744;2024-02-21T00:33:58;101061.30;;;8.44;71.56
74403;BME280;62837;51.082;13.744;2024-02-21T00:36:29;101053.60;;;8.44;71.27
74403;BME280;62837;51.082;13.744;2024-02-21T00:39:00;101054.14;;;8.44;71.40
74403;BME280;62837;51.082;13.744;2024-02-21T00:41:31;101047.73;;;8.44;71.25
74403;BME280;62837;51.082;13.744;2024-02-21T00:44:01;101045.71;;;8.44;71.22
74403;BME280;62837;51.082;13.744;2024-02-21T00:46:35;101052.91;;;8.45;71.27
74403;BME280;62837;51.082;13.744;2024-02-21T00:49:08;101047.70;;;8.45;71.18
74403;BME280;62837;51.082;13.744;2024-02-21T00:51:39;101047.33;;;8.43;71.20
74403;BME280;62837;51.082;13.744;2024-02-21T00:54:10;101044.27;;;8.42;71.13
74403;BME280;62837;51.082;13.744;2024-02-21T00:56:40;101043.24;;;8.43;71.43
74403;BME280;62837;51.082;13.744;2024-02-21T00:59:11;101033.82;;;8.43;71.35
74403;BME280;62837;51.082;13.744;2024-02-21T01:01:41;101033.73;;;8.45;71.47
74403;BME280;62837;51.082;13.744;2024-02-21T01:04:13;101033.59;;;8.46;71.34
74403;BME280;62837;51.082;13.744;2024-02-21T01:06:44;101030.39;;;8.48;71.62
74403;BME280;62837;51.082;13.744;2024-02-21T01:09:14;101024.39;;;8.50;71.65
74403;BME280;62837;51.082;13.744;2024-02-21T01:11:45;101026.63;;;8.52;71.47
74403;BME280;62837;51.082;13.744;2024-02-21T01:14:16;101022.02;;;8.52;70.90
74403;BME280;62837;51.082;13.744;2024-02-21T01:16:47;101016.67;;;8.53;71.06
74403;BME280;62837;51.082;13.744;2024-02-21T01:19:17;101012.63;;;8.50;70.86
74403;BME280;62837;51.082;13.744;2024-02-21T01:21:48;101010.53;;;8.49;71.11
74403;BME280;62837;51.082;13.744;2024-02-21T01:24:19;101006.64;;;8.46;71.13
74403;BME280;62837;51.082;13.744;2024-02-21T01:26:50;101004.80;;;8.45;71.10
74403;BME280;62837;51.082;13.744;2024-02-21T01:29:21;101000.04;;;8.45;71.40
74403;BME280;62837;51.082;13.744;2024-02-21T01:31:51;100991.94;;;8.46;71.23
74403;BME280;62837;51.082;13.744;2024-02-21T01:34:22;100989.16;;;8.45;70.98
74403;BME280;62837;51.082;13.744;2024-02-21T01:36:53;100982.33;;;8.42;70.75
74403;BME280;62837;51.082;13.744;2024-02-21T01:39:24;100978.56;;;8.40;71.30
74403;BME280;62837;51.082;13.744;2024-02-21T01:41:54;100977.20;;;8.37;70.74
74403;BME280;62837;51.082;13.744;2024-02-21T01:44:25;100968.55;;;8.34;71.43
74403;BME280;62837;51.082;13.744;2024-02-21T01:46:56;100965.04;;;8.33;70.97
74403;BME280;62837;51.082;13.744;2024-02-21T01:49:27;100960.42;;;8.31;71.01
74403;BME280;62837;51.082;13.744;2024-02-21T01:51:58;100952.73;;;8.30;71.15
74403;BME280;62837;51.082;13.744;2024-02-21T01:54:29;100950.40;;;8.31;71.02
74403;BME280;62837;51.082;13.744;2024-02-21T01:57:00;100947.20;;;8.30;71.39
74403;BME280;62837;51.082;13.744;2024-02-21T01:59:31;100948.45;;;8.32;71.18
74403;BME280;62837;51.082;13.744;2024-02-21T02:02:02;100943.09;;;8.32;71.18
74403;BME280;62837;51.082;13.744;2024-02-21T02:04:33;100939.65;;;8.33;71.49
74403;BME280;62837;51.082;13.744;2024-02-21T02:07:05;100941.42;;;8.33;71.05
74403;BME280;62837;51.082;13.744;2024-02-21T02:09:37;100938.80;;;8.35;71.14
74403;BME280;62837;51.082;13.744;2024-02-21T02:12:09;100936.04;;;8.36;70.79
74403;BME280;62837;51.082;13.744;2024-02-21T02:14:40;100933.91;;;8.37;71.26
74403;BME280;62837;51.082;13.744;2024-02-21T02:17:10;100932.33;;;8.38;71.10
74403;BME280;62837;51.082;13.744;2024-02-21T02:19:41;100935.83;;;8.39;71.00
74403;BME280;62837;51.082;13.744;2024-02-21T02:22:25;100931.95;;;8.39;70.76
74403;BME280;62837;51.082;13.744;2024-02-21T02:24:59;100932.67;;;8.38;70.75
74403;BME280;62837;51.082;13.744;2024-02-21T02:27:30;100928.65;;;8.37;71.03
74403;BME280;62837;51.082;13.744;2024-02-21T02:30:00;100929.68;;;8.37;71.11
74403;BME280;62837;51.082;13.744;2024-02-21T02:32:31;100924.70;;;8.37;70.95
74403;BME280;62837;51.082;13.744;2024-02-21T02:35:02;100925.77;;;8.38;71.02
74403;BME280;62837;51.082;13.744;2024-02-21T02:37:33;100924.45;;;8.38;71.03
74403;BME280;62837;51.082;13.744;2024-02-21T02:40:06;100926.31;;;8.38;70.99
74403;BME280;62837;51.082;13.744;2024-02-21T02:42:37;100925.05;;;8.34;71.25
74403;BME280;62837;51.082;13.744;2024-02-21T02:45:09;100924.34;;;8.34;71.43
74403;BME280;62837;51.082;13.744;2024-02-21T02:47:43;100919.61;;;8.35;71.42
74403;BME280;62837;51.082;13.744;2024-02-21T02:50:15;100916.90;;;8.36;71.28
74403;BME280;62837;51.082;13.744;2024-02-21T02:52:46;100914.35;;;8.37;71.24
74403;BME280;62837;51.082;13.744;2024-02-21T02:55:17;100910.16;;;8.36;71.51
74403;BME280;62837;51.082;13.744;2024-02-21T02:57:47;100909.95;;;8.36;71.27
74403;BME280;62837;51.082;13.744;2024-02-21T03:00:19;100906.61;;;8.37;71.16
74403;BME280;62837;51.082;13.744;2024-02-21T03:02:50;100905.89;;;8.36;71.27
74403;BME280;62837;51.082;13.744;2024-02-21T03:05:22;100901.56;;;8.36;70.97
74403;BME280;62837;51.082;13.744;2024-02-21T03:07:53;100898.31;;;8.36;71.20
74403;BME280;62837;51.082;13.744;2024-02-21T03:10:25;100897.85;;;8.35;71.06
74403;BME280;62837;51.082;13.744;2024-02-21T03:12:55;100891.84;;;8.34;70.88
74403;BME280;62837;51.082;13.744;2024-02-21T03:15:26;100889.02;;;8.33;71.27
74403;BME280;62837;51.082;13.744;2024-02-21T03:17:57;100889.10;;;8.34;71.56
74403;BME280;62837;51.082;13.744;2024-02-21T03:20:28;100891.92;;;8.33;71.25
74403;BME280;62837;51.082;13.744;2024-02-21T03:22:59;100890.57;;;8.30;71.16
74403;BME280;62837;51.082;13.744;2024-02-21T03:25:29;100887.12;;;8.27;71.33
74403;BME280;62837;51.082;13.744;2024-02-21T03:28:00;100891.08;;;8.27;71.12
74403;BME280;62837;51.082;13.744;2024-02-21T03:30:31;100891.89;;;8.27;71.10
74403;BME280;62837;51.082;13.744;2024-02-21T03:33:04;100890.19;;;8.27;71.29
74403;BME280;62837;51.082;13.744;2024-02-21T03:35:34;100888.98;;;8.25;71.46
74403;BME280;62837;51.082;13.744;2024-02-21T03:38:05;100893.41;;;8.25;71.41
74403;BME280;62837;51.082;13.744;2024-02-21T03:40:36;100890.05;;;8.24;71.58
74403;BME280;62837;51.082;13.744;2024-02-21T03:43:07;100887.35;;;8.25;71.70
74403;BME280;62837;51.082;13.744;2024-02-21T03:45:38;100884.19;;;8.25;71.37
74403;BME280;62837;51.082;13.744;2024-02-21T03:48:09;100880.42;;;8.26;71.61
74403;BME280;62837;51.082;13.744;2024-02-21T03:50:40;100877.91;;;8.27;71.49
74403;BME280;62837;51.082;13.744;2024-02-21T03:53:11;100877.93;;;8.28;71.66
74403;BME280;62837;51.082;13.744;2024-02-21T03:55:42;100876.29;;;8.29;71.66
74403;BME280;62837;51.082;13.744;2024-02-21T03:58:12;100873.09;;;8.31;71.99
74403;BME280;62837;51.082;13.744;2024-02-21T04:00:43;100874.95;;;8.31;71.87
74403;BME280;62837;51.082;13.744;2024-02-21T04:03:14;100870.48;;;8.32;71.81
74403;BME280;62837;51.082;13.744;2024-02-21T04:05:45;100868.68;;;8.32;71.68
74403;BME280;62837;51.082;13.744;2024-02-21T04:08:16;100869.77;;;8.32;71.53
74403;BME280;62837;51.082;13.744;2024-02-21T04:10:47;100870.35;;;8.34;71.47
74403;BME280;62837;51.082;13.744;2024-02-21T04:13:18;100866.89;;;8.31;71.62
74403;BME280;62837;51.082;13.744;2024-02-21T04:15:48;100868.63;;;8.31;71.89
74403;BME280;62837;51.082;13.744;2024-02-21T04:18:19;100866.73;;;8.31;71.79
74403;BME280;62837;51.082;13.744;2024-02-21T04:20:50;100867.52;;;8.32;71.76
74403;BME280;62837;51.082;13.744;2024-02-21T04:23:20;100865.89;;;8.33;71.46
74403;BME280;62837;51.082;13.744;2024-02-21T04:25:51;100863.52;;;8.34;71.32
74403;BME280;62837;51.082;13.744;2024-02-21T04:28:23;100860.77;;;8.35;71.27
74403;BME280;62837;51.082;13.744;2024-02-21T04:30:53;100862.73;;;8.36;71.13
74403;BME280;62837;51.082;13.744;2024-02-21T04:33:24;100863.24;;;8.36;71.12
74403;BME280;62837;51.082;13.744;2024-02-21T04:35:55;100859.11;;;8.35;71.61
74403;BME280;62837;51.082;13.744;2024-02-21T04:38:28;100857.17;;;8.36;71.28
74403;BME280;62837;51.082;13.744;2024-02-21T04:40:59;100856.45;;;8.36;71.04
74403;BME280;62837;51.082;13.744;2024-02-21T04:43:30;100856.30;;;8.34;71.22
74403;BME280;62837;51.082;13.744;2024-02-21T04:46:00;100854.53;;;8.32;71.36
74403;BME280;62837;51.082;13.744;2024-02-21T04:48:31;100856.33;;;8.28;71.22
74403;BME280;62837;51.082;13.744;2024-02-21T04:51:02;100857.33;;;8.28;71.37
74403;BME280;62837;51.082;13.744;2024-02-21T04:53:32;100854.80;;;8.27;71.46
74403;BME280;62837;51.082;13.744;2024-02-21T04:56:04;100854.67;;;8.26;71.64
74403;BME280;62837;51.082;13.744;2024-02-21T04:58:39;100848.52;;;8.26;71.25
74403;BME280;62837;51.082;13.744;2024-02-21T05:01:10;100848.48;;;8.24;71.19
74403;BME280;62837;51.082;13.744;2024-02-21T05:03:41;100845.80;;;8.22;70.98
74403;BME280;62837;51.082;13.744;2024-02-21T05:06:12;100841.00;;;8.23;71.43
74403;BME280;62837;51.082;13.744;2024-02-21T05:08:42;100837.15;;;8.25;71.71
74403;BME280;62837;51.082;13.744;2024-02-21T05:11:13;100836.24;;;8.23;71.40
74403;BME280;62837;51.082;13.744;2024-02-21T05:13:44;100834.25;;;8.23;71.18
74403;BME280;62837;51.082;13.744;2024-02-21T05:16:15;100834.80;;;8.23;71.19
74403;BME280;62837;51.082;13.744;2024-02-21T05:18:46;100834.61;;;8.22;71.17
74403;BME280;62837;51.082;13.744;2024-02-21T05:21:17;100835.20;;;8.21;71.23
74403;BME280;62837;51.082;13.744;2024-02-21T05:23:48;100836.02;;;8.23;71.30
74403;BME280;62837;51.082;13.744;2024-02-21T05:26:24;100833.54;;;8.23;71.72
74403;BME280;62837;51.082;13.744;2024-02-21T05:28:55;100834.66;;;8.21;71.81
74403;BME280;62837;51.082;13.744;2024-02-21T05:31:55;100834.64;;;8.20;71.84
74403;BME280;62837;51.082;13.744;2024-02-21T05:34:27;100830.85;;;8.20;72.20
74403;BME280;62837;51.082;13.744;2024-02-21T05:36:58;100827.65;;;8.20;72.33
74403;BME280;62837;51.082;13.744;2024-02-21T05:39:30;100820.45;;;8.20;72.45
74403;BME280;62837;51.082;13.744;2024-02-21T05:42:01;100817.99;;;8.21;72.52
74403;BME280;62837;51.082;13.744;2024-02-21T05:44:31;100812.71;;;8.23;73.01
74403;BME280;62837;51.082;13.744;2024-02-21T05:47:02;100809.05;;;8.27;73.02
74403;BME280;62837;51.082;13.744;2024-02-21T05:49:33;100805.58;;;8.31;72.91
74403;BME280;62837;51.082;13.744;2024-02-21T05:52:05;100808.01;;;8.30;72.74
74403;BME280;62837;51.082;13.744;2024-02-21T05:54:39;100805.85;;;8.29;72.38
74403;BME280;62837;51.082;13.744;2024-02-21T05:57:10;100805.11;;;8.28;72.80
74403;BME280;62837;51.082;13.744;2024-02-21T05:59:41;100799.27;;;8.28;73.03
74403;BME280;62837;51.082;13.744;2024-02-21T06:02:13;100797.48;;;8.35;76.87
74403;BME280;62837;51.082;13.744;2024-02-21T06:04:44;100796.30;;;8.68;78.39
74403;BME280;62837;51.082;13.744;2024-02-21T06:07:16;100795.92;;;8.97;78.57
74403;BME280;62837;51.082;13.744;2024-02-21T06:09:47;100793.17;;;9.23;76.03
74403;BME280;62837;51.082;13.744;2024-02-21T06:12:17;100789.45;;;9.43;76.28
74403;BME280;62837;51.082;13.744;2024-02-21T06:14:48;100785.61;;;9.65;74.68
74403;BME280;62837;51.082;13.744;2024-02-21T06:17:19;100779.30;;;9.77;73.33
74403;BME280;62837;51.082;13.744;2024-02-21T06:19:50;100775.48;;;9.85;73.60
74403;BME280;62837;51.082;13.744;2024-02-21T06:22:21;100771.60;;;10.08;74.08
74403;BME280;62837;51.082;13.744;2024-02-21T06:24:52;100768.35;;;10.28;73.03
74403;BME280;62837;51.082;13.744;2024-02-21T06:27:23;100768.52;;;10.43;71.14
74403;BME280;62837;51.082;13.744;2024-02-21T06:29:54;100764.60;;;10.30;69.36
74403;BME280;62837;51.082;13.744;2024-02-21T06:32:24;100765.66;;;10.09;68.83
74403;BME280;62837;51.082;13.744;2024-02-21T06:34:55;100761.45;;;9.87;68.91
74403;BME280;62837;51.082;13.744;2024-02-21T06:37:26;100760.09;;;9.67;68.98
74403;BME280;62837;51.082;13.744;2024-02-21T06:39:57;100755.84;;;9.50;69.45
74403;BME280;62837;51.082;13.744;2024-02-21T06:42:28;100757.76;;;9.37;69.34
74403;BME280;62837;51.082;13.744;2024-02-21T06:44:59;100760.84;;;9.27;69.64
74403;BME280;62837;51.082;13.744;2024-02-21T06:47:30;100763.71;;;9.18;69.74
74403;BME280;62837;51.082;13.744;2024-02-21T06:50:01;100763.81;;;9.11;70.14
74403;BME280;62837;51.082;13.744;2024-02-21T06:52:32;100766.36;;;9.04;70.23
74403;BME280;62837;51.082;13.744;2024-02-21T06:55:03;100765.40;;;8.96;70.15
74403;BME280;62837;51.082;13.744;2024-02-21T06:57:34;100765.23;;;8.89;70.67
74403;BME280;62837;51.082;13.744;2024-02-21T07:00:06;100768.77;;;8.85;70.79
74403;BME280;62837;51.082;13.744;2024-02-21T07:02:37;100772.11;;;8.80;71.11
74403;BME280;62837;51.082;13.744;2024-02-21T07:05:09;100773.58;;;8.78;71.36
74403;BME280;62837;51.082;13.744;2024-02-21T07:07:40;100773.76;;;8.75;71.43
74403;BME280;62837;51.082;13.744;2024-02-21T07:10:11;100771.63;;;8.74;71.72
74403;BME280;62837;51.082;13.744;2024-02-21T07:12:42;100769.76;;;8.75;71.76
74403;BME280;62837;51.082;13.744;2024-02-21T07:15:14;100774.33;;;8.77;71.67
74403;BME280;62837;51.082;13.744;2024-02-21T07:17:47;100774.83;;;8.79;71.58
74403;BME280;62837;51.082;13.744;2024-02-21T07:20:24;100777.35;;;8.82;71.71
74403;BME280;62837;51.082;13.744;2024-02-21T07:22:55;100777.23;;;8.81;71.68
74403;BME280;62837;51.082;13.744;2024-02-21T07:25:25;100776.04;;;8.80;71.77
74403;BME280;62837;51.082;13.744;2024-02-21T07:27:57;100779.33;;;8.79;71.97
74403;BME280;62837;51.082;13.744;2024-02-21T07:30:27;100782.66;;;8.79;71.66
74403;BME280;62837;51.082;13.744;2024-02-21T07:32:58;100786.13;;;8.79;71.81
74403;BME280;62837;51.082;13.744;2024-02-21T07:35:29;100783.95;;;8.83;72.05
74403;BME280;62837;51.082;13.744;2024-02-21T07:38:00;100784.20;;;8.88;71.90
74403;BME280;62837;51.082;13.744;2024-02-21T07:40:33;100782.02;;;8.95;71.98
74403;BME280;62837;51.082;13.744;2024-02-21T07:43:04;100780.29;;;9.06;72.04
74403;BME280;62837;51.082;13.744;2024-02-21T07:45:34;100769.45;;;9.16;71.69
74403;BME280;62837;51.082;13.744;2024-02-21T07:48:06;100763.70;;;9.21;71.63
74403;BME280;62837;51.082;13.744;2024-02-21T07:50:37;100759.32;;;9.25;71.47
74403;BME280;62837;51.082;13.744;2024-02-21T07:53:08;100768.11;;;9.27;71.40
74403;BME280;62837;51.082;13.744;2024-02-21T07:55:39;100766.04;;;9.28;70.78
74403;BME280;62837;51.082;13.744;2024-02-21T07:58:10;100761.48;;;9.26;70.58
74403;BME280;62837;51.082;13.744;2024-02-21T08:00:41;100763.13;;;9.24;70.35
74403;BME280;62837;51.082;13.744;2024-02-21T08:03:12;100764.89;;;9.22;70.46
74403;BME280;62837;51.082;13.744;2024-02-21T08:05:45;100769.61;;;9.23;70.63
74403;BME280;62837;51.082;13.744;2024-02-21T08:08:15;100771.90;;;9.22;70.86
74403;BME280;62837;51.082;13.744;2024-02-21T08:10:50;100764.54;;;9.21;70.77
74403;BME280;62837;51.082;13.744;2024-02-21T08:13:21;100763.71;;;9.21;70.65
74403;BME280;62837;51.082;13.744;2024-02-21T08:15:51;100768.31;;;9.21;70.88
74403;BME280;62837;51.082;13.744;2024-02-21T08:18:22;100765.27;;;9.21;70.91
74403;BME280;62837;51.082;13.744;2024-02-21T08:20:53;100762.77;;;9.23;70.76
74403;BME280;62837;51.082;13.744;2024-02-21T08:23:24;100769.41;;;9.26;70.79
74403;BME280;62837;51.082;13.744;2024-02-21T08:25:55;100763.98;;;9.28;70.75
74403;BME280;62837;51.082;13.744;2024-02-21T08:28:26;100765.36;;;9.29;70.61
74403;BME280;62837;51.082;13.744;2024-02-21T08:31:00;100764.16;;;9.27;70.65
74403;BME280;62837;51.082;13.744;2024-02-21T08:33:33;100762.11;;;9.25;70.73
74403;BME280;62837;51.082;13.744;2024-02-21T08:36:05;100762.57;;;9.26;70.33
74403;BME280;62837;51.082;13.744;2024-02-21T08:38:36;100750.70;;;9.23;70.47
74403;BME280;62837;51.082;13.744;2024-02-21T08:41:07;100747.65;;;9.22;70.46
74403;BME280;62837;51.082;13.744;2024-02-21T08:43:38;100749.83;;;9.21;70.60
74403;BME280;62837;51.082;13.744;2024-02-21T08:46:09;100752.13;;;9.18;70.34
74403;BME280;62837;51.082;13.744;2024-02-21T08:48:40;100754.77;;;9.14;70.40
74403;BME280;62837;51.082;13.744;2024-02-21T08:51:11;100754.54;;;9.11;70.48
74403;BME280;62837;51.082;13.744;2024-02-21T08:53:43;100748.54;;;9.06;70.64
74403;BME280;62837;51.082;13.744;2024-02-21T08:56:14;100744.45;;;9.03;70.52
74403;BME280;62837;51.082;13.744;2024-02-21T08:58:45;100744.30;;;9.01;70.68
74403;BME280;62837;51.082;13.744;2024-02-21T09:01:16;100738.77;;;9.01;70.55
74403;BME280;62837;51.082;13.744;2024-02-21T09:03:47;100739.48;;;9.02;70.84
74403;BME280;62837;51.082;13.744;2024-02-21T09:06:22;100737.26;;;9.05;70.74
74403;BME280;62837;51.082;13.744;2024-02-21T09:08:52;100736.64;;;9.06;70.60
74403;BME280;62837;51.082;13.744;2024-02-21T09:11:23;100739.80;;;9.05;70.77
74403;BME280;62837;51.082;13.744;2024-02-21T09:13:54;100739.56;;;9.03;71.09
74403;BME280;62837;51.082;13.744;2024-02-21T09:16:25;100738.23;;;9.02;70.92
74403;BME280;62837;51.082;13.744;2024-02-21T09:18:56;100737.34;;;9.01;71.06
74403;BME280;62837;51.082;13.744;2024-02-21T09:21:27;100736.50;;;9.01;70.89
74403;BME280;62837;51.082;13.744;2024-02-21T09:23:58;100732.99;;;9.01;70.79
74403;BME280;62837;51.082;13.744;2024-02-21T09:26:29;100736.08;;;9.01;70.91
74403;BME280;62837;51.082;13.744;2024-02-21T09:29:00;100740.48;;;9.02;70.97
74403;BME280;62837;51.082;13.744;2024-02-21T09:31:31;100742.80;;;9.03;71.06
74403;BME280;62837;51.082;13.744;2024-02-21T09:34:02;100745.88;;;9.03;71.20
74403;BME280;62837;51.082;13.744;2024-02-21T09:36:33;100747.39;;;9.04;71.06
74403;BME280;62837;51.082;13.744;2024-02-21T09:39:04;100746.55;;;9.04;71.00
74403;BME280;62837;51.082;13.744;2024-02-21T09:41:37;100751.88;;;9.04;70.83
74403;BME280;62837;51.082;13.744;2024-02-21T09:44:14;100758.41;;;9.04;70.91
74403;BME280;62837;51.082;13.744;2024-02-21T09:46:55;100753.02;;;9.03;70.90
74403;BME280;62837;51.082;13.744;2024-02-21T09:49:31;100750.30;;;9.05;71.09
74403;BME280;62837;51.082;13.744;2024-02-21T09:52:05;100748.26;;;9.06;70.84
74403;BME280;62837;51.082;13.744;2024-02-21T09:54:36;100752.16;;;9.07;70.56
74403;BME280;62837;51.082;13.744;2024-02-21T09:57:07;100750.58;;;9.07;70.44
74403;BME280;62837;51.082;13.744;2024-02-21T09:59:38;100749.98;;;9.08;70.31
74403;BME280;62837;51.082;13.744;2024-02-21T10:02:11;100752.71;;;9.07;70.11
74403;BME280;62837;51.082;13.744;2024-02-21T10:04:42;100749.15;;;9.07;70.36
74403;BME280;62837;51.082;13.744;2024-02-21T10:07:14;100751.70;;;9.08;70.10
74403;BME280;62837;51.082;13.744;2024-02-21T10:09:45;100752.04;;;9.09;70.13
74403;BME280;62837;51.082;13.744;2024-02-21T10:12:17;100746.94;;;9.08;70.00
74403;BME280;62837;51.082;13.744;2024-02-21T10:14:48;100744.98;;;9.10;70.15
74403;BME280;62837;51.082;13.744;2024-02-21T10:17:19;100746.31;;;9.11;70.19
74403;BME280;62837;51.082;13.744;2024-02-21T10:19:50;100749.52;;;9.11;70.06
74403;BME280;62837;51.082;13.744;2024-02-21T10:22:21;100754.17;;;9.12;70.13
74403;BME280;62837;51.082;13.744;2024-02-21T10:24:55;100748.73;;;9.14;70.10
74403;BME280;62837;51.082;13.744;2024-02-21T10:27:25;100748.23;;;9.16;70.26
74403;BME280;62837;51.082;13.744;2024-02-21T10:29:56;100743.07;;;9.18;70.41
74403;BME280;62837;51.082;13.744;2024-02-21T10:32:27;100741.11;;;9.21;70.35
74403;BME280;62837;51.082;13.744;2024-02-21T10:35:04;100739.55;;;9.23;70.39
74403;BME280;62837;51.082;13.744;2024-02-21T10:37:35;100737.75;;;9.25;70.16
74403;BME280;62837;51.082;13.744;2024-02-21T10:40:08;100741.45;;;9.26;70.16
74403;BME280;62837;51.082;13.744;2024-02-21T10:42:39;100737.13;;;9.28;70.33
74403;BME280;62837;51.082;13.744;2024-02-21T10:45:10;100731.77;;;9.30;70.51
74403;BME280;62837;51.082;13.744;2024-02-21T10:47:49;100719.66;;;9.32;69.72
74403;BME280;62837;51.082;13.744;2024-02-21T10:50:26;100714.48;;;9.30;69.44
74403;BME280;62837;51.082;13.744;2024-02-21T10:53:09;100715.32;;;9.31;69.55
74403;BME280;62837;51.082;13.744;2024-02-21T10:55:51;100709.75;;;9.33;69.14
74403;BME280;62837;51.082;13.744;2024-02-21T10:58:30;100712.43;;;9.35;69.42
74403;BME280;62837;51.082;13.744;2024-02-21T11:01:01;100711.70;;;9.37;69.48
74403;BME280;62837;51.082;13.744;2024-02-21T11:03:33;100701.64;;;9.39;69.04
74403;BME280;62837;51.082;13.744;2024-02-21T11:06:04;100698.31;;;9.39;68.89
74403;BME280;62837;51.082;13.744;2024-02-21T11:08:35;100693.32;;;9.40;69.05
74403;BME280;62837;51.082;13.744;2024-02-21T11:11:07;100697.46;;;9.41;69.03
74403;BME280;62837;51.082;13.744;2024-02-21T11:13:48;100691.82;;;9.42;68.72
74403;BME280;62837;51.082;13.744;2024-02-21T11:16:24;100694.05;;;9.41;68.84
74403;BME280;62837;51.082;13.744;2024-02-21T11:19:05;100687.75;;;9.41;68.55
74403;BME280;62837;51.082;13.744;2024-02-21T11:21:37;100684.59;;;9.43;68.54
74403;BME280;62837;51.082;13.744;2024-02-21T11:24:09;100678.36;;;9.44;68.68
74403;BME280;62837;51.082;13.744;2024-02-21T11:26:41;100671.59;;;9.45;68.94
74403;BME280;62837;51.082;13.744;2024-02-21T11:29:12;100668.61;;;9.48;69.03
74403;BME280;62837;51.082;13.744;2024-02-21T11:31:53;100658.45;;;9.50;68.69
74403;BME280;62837;51.082;13.744;2024-02-21T11:34:24;100648.59;;;9.52;68.69
74403;BME280;62837;51.082;13.744;2024-02-21T11:36:55;100645.88;;;9.54;68.76
74403;BME280;62837;51.082;13.744;2024-02-21T11:39:27;100641.71;;;9.57;68.88
74403;BME280;62837;51.082;13.744;2024-02-21T11:42:05;100641.70;;;9.62;68.97
74403;BME280;62837;51.082;13.744;2024-02-21T11:44:38;100634.64;;;9.72;68.93
74403;BME280;62837;51.082;13.744;2024-02-21T11:47:09;100625.75;;;9.83;68.92
74403;BME280;62837;51.082;13.744;2024-02-21T11:49:45;100619.17;;;9.89;68.45
74403;BME280;62837;51.082;13.744;2024-02-21T11:52:16;100618.52;;;9.92;68.64
74403;BME280;62837;51.082;13.744;2024-02-21T11:54:49;100616.18;;;9.98;68.38
74403;BME280;62837;51.082;13.744;2024-02-21T11:57:20;100610.52;;;10.00;68.36
74403;BME280;62837;51.082;13.744;2024-02-21T11:59:52;100614.20;;;10.01;68.17
74403;BME280;62837;51.082;13.744;2024-02-21T12:02:29;100604.95;;;10.03;68.17
74403;BME280;62837;51.082;13.744;2024-02-21T12:05:00;100595.21;;;10.03;68.06
74403;BME280;62837;51.082;13.744;2024-02-21T12:07:31;100590.21;;;10.03;68.15
74403;BME280;62837;51.082;13.744;2024-02-21T12:10:02;100587.04;;;10.04;68.11
74403;BME280;62837;51.082;13.744;2024-02-21T12:12:33;100579.46;;;10.04;68.18
74403;BME280;62837;51.082;13.744;2024-02-21T12:15:07;100571.67;;;10.04;68.05
74403;BME280;62837;51.082;13.744;2024-02-21T12:17:39;100566.27;;;10.07;68.08
74403;BME280;62837;51.082;13.744;2024-02-21T12:20:11;100564.70;;;10.11;68.24
74403;BME280;62837;51.082;13.744;2024-02-21T12:22:44;100556.40;;;10.17;68.29
74403;BME280;62837;51.082;13.744;2024-02-21T12:25:19;100553.02;;;10.23;67.87
74403;BME280;62837;51.082;13.744;2024-02-21T12:27:52;100546.27;;;10.35;67.81
74403;BME280;62837;51.082;13.744;2024-02-21T12:30:23;100537.30;;;10.46;67.78
74403;BME280;62837;51.082;13.744;2024-02-21T12:32:53;100528.56;;;10.51;67.59
74403;BME280;62837;51.082;13.744;2024-02-21T12:35:24;100521.37;;;10.55;66.93
74403;BME280;62837;51.082;13.744;2024-02-21T12:37:56;100518.80;;;10.58;66.91
74403;BME280;62837;51.082;13.744;2024-02-21T12:40:26;100507.36;;;10.61;66.84
74403;BME280;62837;51.082;13.744;2024-02-21T12:43:02;100502.00;;;10.68;66.75
74403;BME280;62837;51.082;13.744;2024-02-21T12:45:34;100497.82;;;10.78;66.68
74403;BME280;62837;51.082;13.744;2024-02-21T12:48:06;100495.70;;;10.90;66.59
74403;BME280;62837;51.082;13.744;2024-02-21T12:50:37;100483.81;;;11.01;66.29
74403;BME280;62837;51.082;13.744;2024-02-21T12:53:07;100482.34;;;11.13;66.35
74403;BME280;62837;51.082;13.744;2024-02-21T12:55:51;100487.19;;;11.30;65.93
74403;BME280;62837;51.082;13.744;2024-02-21T12:58:22;100477.30;;;11.45;65.85
74403;BME280;62837;51.082;13.744;2024-02-21T13:00:54;100467.39;;;11.60;65.15
74403;BME280;62837;51.082;13.744;2024-02-21T13:03:25;100463.75;;;11.67;64.42
74403;BME280;62837;51.082;13.744;2024-02-21T13:05:59;100460.69;;;11.69;63.68
74403;BME280;62837;51.082;13.744;2024-02-21T13:08:30;100456.64;;;11.73;64.08
74403;BME280;62837;51.082;13.744;2024-02-21T13:11:01;100450.54;;;11.79;64.08